createdAt,value
2018-12-06T00:00:06.717Z,7.63
2018-12-06T00:02:35.670Z,11.00
2018-12-06T00:05:05.165Z,6.83
2018-12-06T00:07:34.534Z,6.87
2018-12-06T00:10:03.504Z,6.87
2018-12-06T00:12:32.405Z,8.57
2018-12-06T00:15:40.661Z,7.63
2018-12-06T00:18:09.615Z,6.87
2018-12-06T00:20:38.559Z,11.60
2018-12-06T00:23:07.490Z,5.60
2018-12-06T00:25:36.444Z,5.13
2018-12-06T00:28:05.461Z,3.97
2018-12-06T00:30:36.766Z,4.40
2018-12-06T00:33:05.908Z,5.00
2018-12-06T00:35:34.852Z,7.83
2018-12-06T00:38:04.028Z,9.40
2018-12-06T00:40:32.945Z,7.33
2018-12-06T00:43:04.784Z,6.07
2018-12-06T00:45:33.805Z,6.50
2018-12-06T00:48:02.781Z,6.27
2018-12-06T00:50:31.673Z,6.43
2018-12-06T00:53:00.481Z,7.60
2018-12-06T00:55:29.394Z,8.63
2018-12-06T00:57:58.319Z,13.33
2018-12-06T01:00:27.365Z,10.53
2018-12-06T01:02:56.413Z,8.00
2018-12-06T01:05:25.349Z,9.27
2018-12-06T01:07:54.261Z,9.03
2018-12-06T01:10:23.079Z,8.83
2018-12-06T01:12:52.068Z,11.03
2018-12-06T01:15:20.983Z,11.00
2018-12-06T01:17:52.803Z,10.07
2018-12-06T01:20:21.609Z,11.37
2018-12-06T01:22:50.609Z,11.33
2018-12-06T01:25:19.621Z,11.20
2018-12-06T01:27:48.439Z,9.63
2018-12-06T01:30:17.338Z,11.90
2018-12-06T01:32:46.213Z,14.80
2018-12-06T01:35:15.006Z,11.90
2018-12-06T01:37:43.881Z,12.63
2018-12-06T01:40:13.033Z,10.00
2018-12-06T01:42:42.025Z,12.23
2018-12-06T01:45:10.928Z,14.00
2018-12-06T01:47:39.932Z,12.57
2018-12-06T01:50:09.722Z,11.80
2018-12-06T01:52:38.616Z,13.67
2018-12-06T01:55:07.608Z,15.67
2018-12-06T01:57:36.494Z,17.40
2018-12-06T02:00:06.297Z,16.57
2018-12-06T02:02:35.193Z,13.97
2018-12-06T02:05:04.485Z,14.83
2018-12-06T02:07:33.476Z,15.37
2018-12-06T02:10:02.628Z,14.93
2018-12-06T02:12:31.613Z,18.27
2018-12-06T02:15:00.428Z,14.80
2018-12-06T02:17:29.289Z,23.07
2018-12-06T02:19:58.084Z,20.90
2018-12-06T02:22:26.980Z,19.13
2018-12-06T02:24:55.865Z,29.13
2018-12-06T02:27:24.777Z,25.40
2018-12-06T02:29:53.689Z,15.83
2018-12-06T02:32:23.702Z,18.50
2018-12-06T02:34:52.506Z,16.30
2018-12-06T02:37:21.535Z,17.27
2018-12-06T02:39:50.473Z,18.33
2018-12-06T02:42:19.414Z,15.70
2018-12-06T02:44:48.206Z,15.27
2018-12-06T02:47:17.121Z,15.33
2018-12-06T02:49:45.988Z,14.33
2018-12-06T02:52:14.914Z,16.03
2018-12-06T02:54:43.830Z,17.10
2018-12-06T02:57:12.718Z,18.23
2018-12-06T02:59:41.622Z,17.17
2018-12-06T03:02:10.513Z,17.17
2018-12-06T03:04:39.316Z,14.63
2018-12-06T03:07:08.201Z,14.77
2018-12-06T03:09:37.116Z,15.60
2018-12-06T03:12:05.962Z,17.27
2018-12-06T03:14:34.799Z,19.37
2018-12-06T03:17:03.817Z,17.30
2018-12-06T03:19:32.913Z,18.63
2018-12-06T03:22:01.816Z,16.43
2018-12-06T03:24:30.802Z,17.80
2018-12-06T03:26:59.907Z,14.73
2018-12-06T03:29:29.213Z,17.43
2018-12-06T03:31:58.205Z,15.83
2018-12-06T03:34:27.225Z,14.73
2018-12-06T03:36:56.240Z,21.63
2018-12-06T03:39:25.054Z,18.83
2018-12-06T03:41:53.998Z,15.67
2018-12-06T03:44:23.866Z,16.67
2018-12-06T03:46:52.806Z,22.13
2018-12-06T03:49:21.786Z,18.97
2018-12-06T03:51:50.710Z,18.67
2018-12-06T03:54:19.626Z,20.83
2018-12-06T03:56:48.817Z,19.80
2018-12-06T03:59:17.745Z,17.63
2018-12-06T04:01:46.536Z,23.53
2018-12-06T04:04:15.422Z,19.00
2018-12-06T04:06:44.203Z,16.53
2018-12-06T04:09:13.269Z,17.00
2018-12-06T04:11:42.366Z,16.87
2018-12-06T04:14:11.293Z,16.90
2018-12-06T04:16:40.221Z,17.43
2018-12-06T04:19:09.148Z,16.87
2018-12-06T04:21:38.069Z,18.47
2018-12-06T04:24:06.986Z,17.07
2018-12-06T04:26:35.818Z,20.80
2018-12-06T04:29:05.235Z,15.90
2018-12-06T04:31:36.340Z,15.30
2018-12-06T04:34:05.375Z,19.40
2018-12-06T04:36:34.279Z,17.37
2018-12-06T04:39:05.454Z,16.13
2018-12-06T04:41:34.525Z,17.13
2018-12-06T04:44:03.486Z,16.57
2018-12-06T04:46:32.415Z,26.20
2018-12-06T04:49:01.450Z,76.90
2018-12-06T04:51:30.488Z,35.50
2018-12-06T04:53:59.402Z,20.83
2018-12-06T04:56:28.343Z,17.30
2018-12-06T04:58:57.376Z,21.97
2018-12-06T05:01:26.386Z,16.60
2018-12-06T05:03:55.721Z,22.63
2018-12-06T05:06:24.747Z,31.03
2018-12-06T05:08:53.566Z,40.70
2018-12-06T05:11:22.597Z,27.63
2018-12-06T05:13:51.509Z,20.37
2018-12-06T05:16:20.349Z,21.23
2018-12-06T05:18:49.273Z,20.47
2018-12-06T05:21:18.392Z,17.53
2018-12-06T05:23:47.177Z,18.53
2018-12-06T05:26:15.990Z,16.07
2018-12-06T05:28:44.954Z,19.23
2018-12-06T05:31:13.877Z,28.50
2018-12-06T05:33:42.814Z,18.73
2018-12-06T05:36:11.693Z,20.37
2018-12-06T05:38:41.743Z,17.83
2018-12-06T05:41:10.970Z,18.57
2018-12-06T05:43:39.892Z,14.30
2018-12-06T05:46:08.847Z,16.00
2018-12-06T05:48:37.944Z,14.73
2018-12-06T05:51:06.897Z,14.77
2018-12-06T05:53:35.730Z,20.80
2018-12-06T05:56:04.598Z,19.70
2018-12-06T05:58:33.717Z,18.43
2018-12-06T06:01:02.645Z,18.77
2018-12-06T06:03:31.534Z,20.27
2018-12-06T06:06:00.436Z,14.13
2018-12-06T06:08:29.416Z,15.67
2018-12-06T06:10:58.440Z,20.43
2018-12-06T06:13:27.331Z,19.17
2018-12-06T06:15:56.255Z,18.90
2018-12-06T06:18:25.165Z,15.70
2018-12-06T06:20:54.086Z,17.40
2018-12-06T06:23:23.100Z,16.63
2018-12-06T06:25:52.553Z,18.77
2018-12-06T06:28:21.505Z,17.60
2018-12-06T06:30:50.433Z,17.07
2018-12-06T06:33:19.249Z,15.73
2018-12-06T06:35:48.189Z,16.80
2018-12-06T06:38:17.106Z,15.03
2018-12-06T06:40:46.034Z,18.23
2018-12-06T06:43:14.822Z,23.33
2018-12-06T06:45:43.720Z,21.10
2018-12-06T06:48:12.661Z,19.47
2018-12-06T06:50:41.617Z,18.33
2018-12-06T06:53:10.549Z,21.50
2018-12-06T06:55:39.482Z,13.27
2018-12-06T06:58:08.373Z,11.27
2018-12-06T07:00:37.277Z,14.57
2018-12-06T07:03:06.483Z,16.27
2018-12-06T07:05:35.431Z,17.27
2018-12-06T07:08:04.413Z,16.00
2018-12-06T07:10:33.363Z,17.83
2018-12-06T07:13:02.284Z,19.00
2018-12-06T07:15:31.197Z,18.20
2018-12-06T07:18:00.089Z,17.87
2018-12-06T07:20:28.891Z,18.23
2018-12-06T07:22:57.705Z,15.20
2018-12-06T07:25:26.764Z,23.53
2018-12-06T07:27:55.781Z,23.70
2018-12-06T07:30:24.714Z,20.80
2018-12-06T07:32:53.705Z,17.90
2018-12-06T07:35:22.657Z,21.97
2018-12-06T07:37:51.665Z,19.70
2018-12-06T07:40:20.597Z,18.43
2018-12-06T07:42:49.588Z,21.87
2018-12-06T07:45:18.466Z,15.17
2018-12-06T07:47:47.617Z,14.30
2018-12-06T07:50:16.450Z,12.47
2018-12-06T07:52:45.348Z,18.70
2018-12-06T07:55:14.353Z,20.47
2018-12-06T07:57:43.278Z,21.20
2018-12-06T08:00:12.133Z,21.17
2018-12-06T08:02:41.139Z,23.30
2018-12-06T08:05:10.222Z,24.00
2018-12-06T08:07:39.009Z,24.03
2018-12-06T08:10:08.582Z,26.10
2018-12-06T08:12:37.597Z,24.33
2018-12-06T08:15:07.109Z,16.93
2018-12-06T08:17:36.116Z,16.90
2018-12-06T08:20:06.162Z,20.40
2018-12-06T08:22:35.086Z,21.93
2018-12-06T08:25:04.381Z,14.00
2018-12-06T08:27:34.306Z,14.10
2018-12-06T08:30:03.857Z,19.60
2018-12-06T08:32:32.901Z,16.40
2018-12-06T08:35:01.849Z,23.63
2018-12-06T08:37:30.851Z,13.83
2018-12-06T08:39:59.868Z,19.60
2018-12-06T08:42:28.842Z,17.10
2018-12-06T08:44:57.778Z,28.93
2018-12-06T08:47:26.765Z,32.27
2018-12-06T08:49:55.567Z,23.67
2018-12-06T08:52:24.596Z,19.13
2018-12-06T08:54:53.494Z,14.67
2018-12-06T08:57:22.435Z,24.90
2018-12-06T08:59:51.530Z,17.40
2018-12-06T09:02:20.313Z,28.17
2018-12-06T09:04:49.146Z,20.63
2018-12-06T09:07:18.025Z,22.87
2018-12-06T09:09:46.932Z,17.70
2018-12-06T09:12:15.766Z,15.87
2018-12-06T09:14:44.577Z,24.13
2018-12-06T09:17:13.553Z,21.33
2018-12-06T09:19:42.515Z,15.67
2018-12-06T09:22:11.444Z,12.57
2018-12-06T09:24:40.479Z,17.07
2018-12-06T09:27:09.338Z,13.93
2018-12-06T09:29:38.317Z,13.70
2018-12-06T09:32:07.284Z,13.30
2018-12-06T09:34:36.345Z,13.20
2018-12-06T09:37:05.234Z,14.57
2018-12-06T09:39:34.458Z,19.83
2018-12-06T09:42:03.427Z,14.37
2018-12-06T09:44:32.474Z,15.00
2018-12-06T09:47:01.765Z,14.53
2018-12-06T09:49:30.706Z,15.27
2018-12-06T09:51:59.520Z,15.93
2018-12-06T09:54:28.446Z,11.07
2018-12-06T09:56:57.337Z,11.17
2018-12-06T09:59:26.265Z,11.13
2018-12-06T10:01:55.234Z,13.13
2018-12-06T10:04:24.145Z,11.30
2018-12-06T10:06:53.158Z,14.43
2018-12-06T10:09:22.726Z,10.40
2018-12-06T10:11:51.637Z,13.97
2018-12-06T10:14:20.545Z,13.57
2018-12-06T10:16:49.404Z,13.23
2018-12-06T10:19:18.343Z,12.43
2018-12-06T10:21:47.213Z,15.57
2018-12-06T10:24:16.145Z,10.50
2018-12-06T10:26:45.076Z,15.30
2018-12-06T10:29:14.063Z,15.50
2018-12-06T10:31:43.239Z,21.53
2018-12-06T10:34:12.185Z,17.80
2018-12-06T10:36:41.203Z,10.43
2018-12-06T10:39:10.193Z,14.70
2018-12-06T10:41:39.110Z,18.90
2018-12-06T10:44:08.097Z,14.53
2018-12-06T10:46:37.104Z,11.67
2018-12-06T10:49:06.096Z,11.03
2018-12-06T10:51:42.487Z,15.03
2018-12-06T10:54:11.312Z,19.33
2018-12-06T10:56:40.234Z,15.60
2018-12-06T10:59:09.291Z,36.27
2018-12-06T11:01:43.522Z,18.47
2018-12-06T11:04:12.367Z,22.13
2018-12-06T11:06:41.301Z,33.73
2018-12-06T11:09:10.270Z,33.57
2018-12-06T11:11:39.173Z,18.87
2018-12-06T11:14:08.114Z,16.07
2018-12-06T11:16:36.983Z,21.80
2018-12-06T11:19:05.874Z,24.87
2018-12-06T11:21:34.818Z,23.63
2018-12-06T11:24:03.892Z,21.67
2018-12-06T11:26:32.846Z,23.27
2018-12-06T11:29:02.021Z,27.17
2018-12-06T11:31:31.065Z,30.47
2018-12-06T11:33:59.972Z,28.17
2018-12-06T11:36:28.769Z,29.07
2018-12-06T11:38:57.692Z,26.37
2018-12-06T11:41:27.580Z,26.57
2018-12-06T11:43:56.506Z,22.70
2018-12-06T11:46:25.442Z,19.03
2018-12-06T11:48:54.509Z,19.70
2018-12-06T11:51:23.555Z,15.60
2018-12-06T11:53:52.535Z,19.03
2018-12-06T11:56:21.459Z,19.03
2018-12-06T11:58:50.483Z,19.97
2018-12-06T12:01:19.315Z,15.57
2018-12-06T12:03:48.403Z,20.30
2018-12-06T12:06:17.296Z,18.37
2018-12-06T12:08:46.192Z,15.67
2018-12-06T12:11:15.104Z,16.90
2018-12-06T12:13:44.014Z,23.37
2018-12-06T12:16:13.030Z,21.87
2018-12-06T12:18:42.037Z,24.80
2018-12-06T12:21:11.283Z,23.83
2018-12-06T12:23:40.184Z,25.80
2018-12-06T12:26:09.303Z,22.77
2018-12-06T12:28:38.537Z,26.00
2018-12-06T12:31:07.757Z,21.80
2018-12-06T12:33:36.813Z,20.80
2018-12-06T12:36:05.706Z,16.07
2018-12-06T12:38:34.631Z,24.50
2018-12-06T12:41:03.738Z,17.37
2018-12-06T12:43:32.676Z,23.43
2018-12-06T12:46:01.674Z,22.00
2018-12-06T12:48:30.696Z,22.63
2018-12-06T12:50:59.617Z,20.63
2018-12-06T12:53:28.618Z,19.03
2018-12-06T12:55:57.666Z,18.93
2018-12-06T12:58:26.670Z,21.47
2018-12-06T13:00:55.697Z,24.03
2018-12-06T13:03:24.518Z,23.30
2018-12-06T13:05:53.615Z,22.77
2018-12-06T13:08:22.654Z,20.13
2018-12-06T13:10:51.552Z,18.43
2018-12-06T13:13:20.888Z,17.90
2018-12-06T13:15:49.802Z,19.87
2018-12-06T13:18:18.729Z,28.37
2018-12-06T13:20:47.809Z,36.27
2018-12-06T13:23:17.284Z,29.43
2018-12-06T13:25:46.202Z,34.57
2018-12-06T13:28:15.000Z,41.97
2018-12-06T13:30:44.345Z,41.83
2018-12-06T13:33:13.439Z,28.70
2018-12-06T13:35:42.537Z,38.47
2018-12-06T13:38:11.737Z,29.77
2018-12-06T13:40:40.954Z,30.93
2018-12-06T13:43:10.223Z,26.77
2018-12-06T13:45:39.339Z,22.13
2018-12-06T13:48:09.082Z,20.20
2018-12-06T13:50:38.131Z,18.43
2018-12-06T13:53:07.425Z,20.13
2018-12-06T13:55:36.572Z,23.37
2018-12-06T13:58:05.459Z,29.90
2018-12-06T14:00:34.440Z,32.17
2018-12-06T14:03:04.402Z,31.90
2018-12-06T14:05:34.130Z,29.53
2018-12-06T14:08:03.415Z,31.83
2018-12-06T14:10:32.734Z,24.77
2018-12-06T14:13:01.769Z,20.53
2018-12-06T14:15:31.215Z,22.50
2018-12-06T14:18:00.973Z,22.80
2018-12-06T14:20:30.738Z,21.87
2018-12-06T14:22:59.773Z,15.07
2018-12-06T14:25:29.208Z,24.97
2018-12-06T14:27:58.611Z,30.23
2018-12-06T14:30:28.241Z,23.93
2018-12-06T14:32:57.788Z,22.50
2018-12-06T14:35:27.325Z,25.13
2018-12-06T14:37:56.325Z,29.87
2018-12-06T14:40:25.282Z,27.40
2018-12-06T14:42:54.504Z,24.73
2018-12-06T14:45:23.470Z,21.87
2018-12-06T14:47:52.386Z,26.63
2018-12-06T14:50:21.500Z,39.63
2018-12-06T14:52:50.910Z,49.73
2018-12-06T14:55:19.836Z,48.53
2018-12-06T14:57:48.955Z,46.10
2018-12-06T15:00:18.679Z,43.07
2018-12-06T15:02:47.919Z,43.43
2018-12-06T15:05:17.446Z,36.47
2018-12-06T15:07:46.974Z,33.93
2018-12-06T15:10:15.890Z,35.27
2018-12-06T15:12:45.078Z,30.50
2018-12-06T15:15:14.342Z,36.80
2018-12-06T15:17:43.525Z,34.23
2018-12-06T15:20:13.246Z,35.20
2018-12-06T15:22:42.653Z,66.07
2018-12-06T15:25:11.905Z,47.47
2018-12-06T15:27:41.886Z,41.73
2018-12-06T15:30:10.954Z,52.77
2018-12-06T15:32:44.893Z,34.80
2018-12-06T15:35:15.762Z,42.20
2018-12-06T15:37:45.062Z,43.17
2018-12-06T15:40:14.661Z,40.27
2018-12-06T15:42:46.745Z,51.13
2018-12-06T15:45:15.690Z,42.87
2018-12-06T15:47:44.743Z,44.67
2018-12-06T15:50:14.094Z,54.63
2018-12-06T15:52:43.514Z,39.50
2018-12-06T15:55:12.913Z,36.13
2018-12-06T15:57:42.601Z,42.33
2018-12-06T16:00:12.742Z,40.90
2018-12-06T16:02:41.834Z,35.80
2018-12-06T16:05:11.682Z,41.43
2018-12-06T16:07:40.656Z,44.10
2018-12-06T16:10:10.413Z,41.80
2018-12-06T16:12:39.558Z,36.90
2018-12-06T16:15:08.782Z,35.30
2018-12-06T16:17:37.951Z,32.47
2018-12-06T16:20:08.921Z,29.23
2018-12-06T16:22:38.174Z,27.30
2018-12-06T16:25:07.590Z,27.80
2018-12-06T16:27:36.610Z,33.50
2018-12-06T16:30:07.754Z,30.13
2018-12-06T16:32:37.053Z,33.83
2018-12-06T16:35:07.081Z,33.43
2018-12-06T16:37:36.338Z,32.53
2018-12-06T16:40:06.409Z,32.60
2018-12-06T16:42:36.190Z,35.43
2018-12-06T16:45:06.584Z,35.57
2018-12-06T16:47:36.288Z,35.50
2018-12-06T16:50:07.268Z,39.53
2018-12-06T16:52:36.616Z,35.30
2018-12-06T16:55:06.704Z,38.67
2018-12-06T16:57:35.929Z,42.63
2018-12-06T17:00:08.031Z,36.60
2018-12-06T17:02:36.970Z,56.03
2018-12-06T17:05:06.050Z,40.43
2018-12-06T17:07:34.952Z,44.27
2018-12-06T17:10:04.944Z,41.97
2018-12-06T17:12:34.730Z,37.37
2018-12-06T17:15:04.309Z,39.23
2018-12-06T17:17:33.226Z,42.20
2018-12-06T17:20:02.302Z,37.53
2018-12-06T17:22:31.710Z,43.33
2018-12-06T17:25:00.702Z,46.57
2018-12-06T17:27:29.802Z,39.67
2018-12-06T17:29:59.198Z,45.10
2018-12-06T17:32:28.145Z,39.73
2018-12-06T17:34:57.147Z,42.47
2018-12-06T17:37:26.058Z,38.23
2018-12-06T17:39:55.486Z,43.33
2018-12-06T17:42:24.392Z,36.47
2018-12-06T17:44:53.402Z,34.27
2018-12-06T17:47:22.223Z,76.23
2018-12-06T17:49:51.413Z,76.13
2018-12-06T17:52:20.355Z,170.43
2018-12-06T17:54:49.387Z,98.07
2018-12-06T17:57:18.189Z,70.67
2018-12-06T17:59:47.081Z,42.60
2018-12-06T18:02:16.779Z,43.87
2018-12-06T18:04:46.103Z,43.57
2018-12-06T18:07:14.999Z,35.30
2018-12-06T18:09:44.202Z,39.37
2018-12-06T18:12:13.513Z,33.33
2018-12-06T18:14:42.605Z,43.53
2018-12-06T18:17:11.881Z,38.73
2018-12-06T18:19:40.811Z,36.73
2018-12-06T18:22:09.917Z,30.93
2018-12-06T18:24:38.837Z,37.77
2018-12-06T18:27:08.152Z,47.17
2018-12-06T18:29:40.374Z,60.90
2018-12-06T18:32:09.424Z,52.97
2018-12-06T18:34:38.450Z,47.60
2018-12-06T18:37:07.490Z,45.87
2018-12-06T18:39:36.525Z,52.07
2018-12-06T18:42:05.672Z,51.40
2018-12-06T18:44:34.795Z,49.00
2018-12-06T18:47:03.797Z,58.67
2018-12-06T18:49:32.821Z,64.87
2018-12-06T18:52:01.729Z,60.37
2018-12-06T18:54:30.767Z,69.80
2018-12-06T18:56:59.789Z,71.97
2018-12-06T18:59:29.162Z,84.70
2018-12-06T19:01:58.243Z,81.27
2018-12-06T19:05:32.197Z,84.23
2018-12-06T19:08:01.129Z,93.50
2018-12-06T19:10:30.193Z,75.90
2018-12-06T19:12:59.644Z,85.80
2018-12-06T19:15:29.428Z,77.83
2018-12-06T19:17:59.265Z,75.90
2018-12-06T19:20:29.930Z,83.83
2018-12-06T19:22:59.693Z,99.57
2018-12-06T19:25:29.423Z,106.57
2018-12-06T19:27:59.271Z,108.83
2018-12-06T19:30:28.387Z,111.60
2018-12-06T19:33:03.157Z,118.77
2018-12-06T19:35:29.989Z,122.40
2018-12-06T19:37:59.244Z,114.17
2018-12-06T19:40:28.717Z,114.00
2018-12-06T19:42:57.844Z,108.07
2018-12-06T19:45:26.752Z,108.40
2018-12-06T19:47:55.969Z,109.07
2018-12-06T19:50:25.820Z,110.23
2018-12-06T19:52:55.125Z,119.03
2018-12-06T19:55:24.507Z,112.63
2018-12-06T19:57:54.318Z,110.93
2018-12-06T20:00:23.529Z,103.90
2018-12-06T20:02:52.585Z,103.73
2018-12-06T20:05:21.621Z,107.20
2018-12-06T20:07:50.733Z,101.17
2018-12-06T20:10:19.821Z,96.70
2018-12-06T20:12:50.197Z,93.00
2018-12-06T20:15:19.159Z,98.37
2018-12-06T20:17:48.295Z,91.13
2018-12-06T20:20:23.553Z,120.80
2018-12-06T20:22:48.482Z,121.47
2018-12-06T20:25:17.722Z,135.30
2018-12-06T20:27:46.809Z,132.63
2018-12-06T20:30:15.851Z,127.23
2018-12-06T20:32:44.869Z,121.73
2018-12-06T20:35:13.814Z,121.13
2018-12-06T20:37:42.869Z,100.43
2018-12-06T20:40:12.800Z,97.60
2018-12-06T20:42:42.612Z,75.67
2018-12-06T20:45:11.624Z,81.73
2018-12-06T20:47:40.734Z,81.33
2018-12-06T20:50:09.704Z,75.07
2018-12-06T20:52:38.758Z,72.67
2018-12-06T20:55:07.938Z,72.83
2018-12-06T20:57:37.624Z,75.60
2018-12-06T21:00:07.117Z,90.90
2018-12-06T21:02:36.125Z,98.57
2018-12-06T21:05:05.133Z,107.97
2018-12-06T21:07:36.801Z,89.27
2018-12-06T21:10:05.892Z,77.93
2018-12-06T21:12:34.846Z,74.10
2018-12-06T21:15:04.569Z,71.63
2018-12-06T21:17:33.798Z,73.43
2018-12-06T21:20:02.897Z,71.87
2018-12-06T21:22:32.249Z,70.13
2018-12-06T21:25:01.181Z,63.27
2018-12-06T21:27:30.235Z,72.87
2018-12-06T21:29:59.510Z,67.07
2018-12-06T21:32:28.842Z,76.30
2018-12-06T21:34:57.974Z,76.73
2018-12-06T21:37:27.005Z,68.80
2018-12-06T21:39:56.239Z,81.10
2018-12-06T21:42:25.178Z,67.77
2018-12-06T21:44:54.258Z,65.80
2018-12-06T21:47:25.968Z,69.00
2018-12-06T21:49:55.237Z,70.13
2018-12-06T21:52:24.194Z,59.07
2018-12-06T21:54:53.113Z,58.33
2018-12-06T21:57:22.157Z,63.77
2018-12-06T21:59:51.565Z,63.93
2018-12-06T22:02:24.389Z,62.07
2018-12-06T22:04:53.434Z,69.50
2018-12-06T22:07:22.724Z,79.77
2018-12-06T22:09:51.878Z,88.83
2018-12-06T22:12:21.301Z,83.20
2018-12-06T22:14:50.381Z,88.90
2018-12-06T22:17:19.322Z,88.43
2018-12-06T22:19:48.337Z,77.43
2018-12-06T22:22:17.453Z,80.00
2018-12-06T22:24:46.426Z,79.53
2018-12-06T22:27:15.451Z,76.27
2018-12-06T22:29:44.350Z,71.07
2018-12-06T22:32:13.382Z,53.07
2018-12-06T22:34:42.368Z,63.33
2018-12-06T22:37:11.390Z,62.77
2018-12-06T22:39:40.430Z,63.53
2018-12-06T22:42:09.453Z,60.33
2018-12-06T22:44:38.482Z,67.40
2018-12-06T22:47:07.564Z,52.90
2018-12-06T22:49:36.584Z,53.63
2018-12-06T22:52:05.548Z,53.87
2018-12-06T22:54:34.507Z,58.17
2018-12-06T22:57:03.541Z,63.73
2018-12-06T22:59:32.632Z,62.33
2018-12-06T23:02:01.691Z,56.37
2018-12-06T23:04:30.602Z,58.40
2018-12-06T23:06:59.527Z,56.83
2018-12-06T23:09:28.457Z,56.27
2018-12-06T23:11:57.472Z,57.23
2018-12-06T23:14:26.497Z,60.13
2018-12-06T23:16:55.561Z,58.00
2018-12-06T23:19:24.574Z,51.83
2018-12-06T23:21:53.494Z,52.97
2018-12-06T23:24:22.989Z,54.10
2018-12-06T23:26:51.912Z,50.90
2018-12-06T23:29:20.938Z,50.17
2018-12-06T23:31:49.866Z,49.30
2018-12-06T23:34:18.916Z,45.57
2018-12-06T23:36:47.823Z,45.03
2018-12-06T23:39:16.937Z,45.13
2018-12-06T23:41:45.846Z,48.87
2018-12-06T23:44:14.886Z,45.70
2018-12-06T23:46:43.877Z,47.17
2018-12-06T23:49:12.833Z,46.37
2018-12-06T23:51:41.879Z,43.77
2018-12-06T23:54:10.894Z,44.53
2018-12-06T23:56:39.802Z,41.70
2018-12-06T23:59:08.854Z,39.37
